Lake Hamilton, FL (33851)

12:49 PM EST on February 10, 2016 (GMT -0500)
Dundee Elementary Academy WeatherSTEM | | Change Station
CLOSE
Current Station
Personal Weather Station
Location: Dundee, FL
Elevation: 170 ft
Nearby Weather Stations

Elev 170 ft 28.03 °N, 81.62 °W | Updated 5 minutes ago

Clear
Clear
59.4 °F
Feels Like 59.4 °F
N
3.0
Wind Variable Wind from WNW
Gusts 9.0 mph

Today
High -- | Low -- °F
--% Chance of Precip.
Yesterday
High -- | Low -- °F
Precip. -- in
Pressure 30.24 in
Visibility 10.0 miles
Clouds Clear
Dew Point 35 °F
Humidity 41%
Rainfall 0.00 in
Snow Depth Not available.
7:08 AM 6:13 PM
Waxing Crescent, 6% visible
METAR KGIF 101653Z AUTO 27009KT 10SM CLR 13/M01 A3024 RMK AO2 SLP240 T01331011
Pressure 30.24 in
Visibility 10.0 miles
Clouds Clear
Dew Point 35 °F
Humidity 41%
Rainfall 0.00 in
Snow Depth Not available.
7:08 AM 6:13 PM
Waxing Crescent, 6% visible
METAR KGIF 101653Z AUTO 27009KT 10SM CLR 13/M01 A3024 RMK AO2 SLP240 T01331011

10-Day Weather Forecast

Almanac

Astronomy

Feb. 10, 2016 Rise Set
Actual Time
Civil Twilight
Nautical Twilight
Astronomical Twilight
Moon
Length of Visible Light
Length of Day
Tomorrow will be .
, % of the Moon is Illuminated

Today's Extremes

State Highs State Lows

Community

WunderPhotos

Upload Photos

1,891,899 photos uploaded!

WunderBlog® & News

Nearby

Air Quality

  Air Quality AQ Index Pollutant
Not available.

Snow Depth

Station Depth Elevation

Earthquake Activity

City Distance Mag. Time & Date
Minimum magnitude displayed is 2.5.

Coastal Water Temperatures

Place Temperature

Stations

Nearby Weather Stations

Station Location Temp. Windchill Dew Point Humidity Wind Precip. Elev Updated Type
                   

Watches & Warnings

There are currently no watches in effect.